Time;durP1;ratioP1;P1;durP2;ratioP2;P2;SDS_P1;SDS_P2;PMS_P1;PMS_P2;Temp;Humidity;BMP_temperature;BMP_pressure;BME280_temperature;BME280_humidity;BME280_pressure;Samples;Min_cycle;Max_cycle;Signal;HPM_P1;HPM_P2
2022/10/18 00:01:18;;;;;;;16.30;6.80;;;;;;;9.95;57.56;101078.67;24476;1328;3025880;-66
2022/10/18 00:03:48;;;;;;;21.10;6.60;;;;;;;9.91;57.65;101084.92;24489;1336;3068619;-64
2022/10/18 00:06:17;;;;;;;12.80;6.70;;;;;;;9.88;57.68;101084.15;24420;1335;3027523;-68
2022/10/18 00:08:46;;;;;;;12.30;6.40;;;;;;;9.82;58.00;101081.38;24574;1335;3028667;-67
2022/10/18 00:11:15;;;;;;;13.40;6.90;;;;;;;9.77;58.33;101078.72;24432;1335;3068378;-68
2022/10/18 00:13:44;;;;;;;15.40;7.20;;;;;;;9.72;58.42;101082.02;24430;1336;3028490;-69
2022/10/18 00:16:15;;;;;;;17.40;7.90;;;;;;;9.72;58.47;101080.45;24467;1337;3049421;-69
2022/10/18 00:18:47;;;;;;;18.00;8.90;;;;;;;9.67;58.74;101081.64;24449;1336;3026141;-69
2022/10/18 00:21:21;;;;;;;17.50;9.00;;;;;;;9.64;58.82;101082.09;24490;1343;3052249;-68
2022/10/18 00:23:51;;;;;;;23.80;10.30;;;;;;;9.60;59.01;101082.04;24516;1336;3028390;-70
2022/10/18 00:26:21;;;;;;;24.20;10.20;;;;;;;9.56;59.15;101077.42;24492;1330;3026812;-67
2022/10/18 00:28:54;;;;;;;20.20;9.10;;;;;;;9.53;59.31;101075.77;24497;1337;3026527;-68
2022/10/18 00:31:32;;;;;;;16.10;8.20;;;;;;;9.47;59.37;101076.84;24504;1327;3026538;-68
2022/10/18 00:34:11;;;;;;;21.30;9.80;;;;;;;9.45;59.54;101070.95;24504;1337;3053929;-68
2022/10/18 00:36:40;;;;;;;16.40;8.30;;;;;;;9.42;59.59;101067.70;24406;1342;3050605;-69
2022/10/18 00:39:14;;;;;;;24.70;10.60;;;;;;;9.42;59.66;101067.20;24437;1333;3025947;-67
2022/10/18 00:41:46;;;;;;;19.10;10.00;;;;;;;9.33;59.85;101068.67;24443;1343;3050698;-69
2022/10/18 00:44:16;;;;;;;22.70;10.60;;;;;;;9.31;60.01;101068.55;24407;1337;3028071;-67
2022/10/18 00:46:46;;;;;;;20.20;10.10;;;;;;;9.26;60.18;101062.77;24429;1336;3028264;-67
2022/10/18 00:49:25;;;;;;;17.80;8.40;;;;;;;9.14;60.63;101062.78;24454;1337;3025864;-66
2022/10/18 00:51:59;;;;;;;18.60;9.30;;;;;;;9.12;60.67;101056.55;24495;1329;3052322;-66
2022/10/18 00:54:30;;;;;;;18.60;8.50;;;;;;;8.98;61.11;101056.41;24403;1337;3054629;-66
2022/10/18 00:56:59;;;;;;;18.10;8.90;;;;;;;9.07;60.94;101056.33;24432;1343;3026078;-67
2022/10/18 00:59:28;;;;;;;19.60;8.80;;;;;;;9.03;61.01;101055.41;24449;1337;3027721;-66
2022/10/18 01:01:59;;;;;;;19.40;9.70;;;;;;;9.07;60.70;101055.11;24443;1329;3052342;-68
2022/10/18 01:04:28;;;;;;;17.60;9.50;;;;;;;8.99;61.22;101052.91;24510;1336;3025934;-67
2022/10/18 01:07:18;;;;;;;17.20;8.60;;;;;;;8.98;61.29;101051.02;24519;1328;3028533;-68
2022/10/18 01:10:12;;;;;;;14.30;8.50;;;;;;;8.96;61.47;101049.84;24415;1335;3050407;-69
2022/10/18 01:13:01;;;;;;;18.50;9.30;;;;;;;8.90;61.70;101048.77;24452;1336;3057105;-66
2022/10/18 01:15:54;;;;;;;19.40;7.60;;;;;;;8.89;61.76;101045.66;24382;1336;3055760;-66
2022/10/18 01:18:27;;;;;;;18.70;8.50;;;;;;;8.89;61.70;101039.20;24495;1329;3054016;-68
2022/10/18 01:21:08;;;;;;;19.30;9.70;;;;;;;8.87;61.64;101035.23;24484;1337;3026800;-68
2022/10/18 01:24:23;;;;;;;16.70;9.20;;;;;;;8.82;61.84;101032.06;24509;1337;3052884;-66
2022/10/18 01:27:14;;;;;;;22.50;11.00;;;;;;;8.77;61.97;101034.13;24471;1329;3050888;-68
2022/10/18 01:29:58;;;;;;;17.80;8.60;;;;;;;8.65;62.60;101034.98;24469;1336;3068519;-68
2022/10/18 01:32:30;;;;;;;20.10;10.20;;;;;;;8.68;62.16;101037.67;24505;1343;3050038;-67
2022/10/18 01:35:02;;;;;;;18.10;8.50;;;;;;;8.61;62.82;101036.84;24489;1335;3026762;-67
2022/10/18 01:37:31;;;;;;;18.00;8.50;;;;;;;8.62;62.77;101036.96;24454;1329;3026863;-68
2022/10/18 01:40:02;;;;;;;20.00;9.80;;;;;;;8.50;63.43;101029.80;24420;1331;3025725;-67
2022/10/18 01:42:32;;;;;;;17.60;8.30;;;;;;;8.57;63.08;101030.85;24443;1336;3056214;-67
2022/10/18 01:45:02;;;;;;;19.20;9.70;;;;;;;8.50;63.51;101030.86;24440;1336;3027474;-67
2022/10/18 01:47:31;;;;;;;17.70;8.60;;;;;;;8.46;63.55;101032.86;24474;1337;3029309;-67
2022/10/18 01:50:03;;;;;;;15.80;8.30;;;;;;;8.51;63.36;101029.23;24497;1330;3027616;-66
2022/10/18 01:52:32;;;;;;;18.90;8.80;;;;;;;8.53;63.35;101029.54;24467;1337;3053497;-66
2022/10/18 01:55:02;;;;;;;18.70;10.00;;;;;;;8.55;63.19;101028.79;24415;1327;3028026;-67
2022/10/18 01:57:38;;;;;;;14.30;7.80;;;;;;;8.54;63.11;101030.73;24410;1336;3055758;-65
2022/10/18 02:00:20;;;;;;;18.70;9.60;;;;;;;8.60;62.88;101026.55;24486;1336;3054511;-67
2022/10/18 02:02:54;;;;;;;19.50;9.20;;;;;;;8.53;63.03;101027.27;24469;1337;3052958;-65
2022/10/18 02:05:50;;;;;;;18.20;8.60;;;;;;;8.52;63.35;101026.95;24445;1328;3053333;-67
2022/10/18 02:08:41;;;;;;;18.70;9.20;;;;;;;8.48;63.39;101028.44;24476;1336;3052434;-66
2022/10/18 02:11:15;;;;;;;15.10;8.10;;;;;;;8.39;63.71;101027.94;24415;1335;3049358;-67
2022/10/18 02:13:50;;;;;;;19.00;8.50;;;;;;;8.35;63.71;101026.84;24399;1329;3028514;-66
2022/10/18 02:16:22;;;;;;;20.90;9.20;;;;;;;8.34;63.82;101019.88;24452;1340;3050598;-66
2022/10/18 02:18:58;;;;;;;14.50;7.80;;;;;;;8.31;63.91;101018.73;24422;1338;3026886;-65
2022/10/18 02:21:27;;;;;;;20.30;9.10;;;;;;;8.33;63.73;101017.45;24504;1337;3052330;-68
2022/10/18 02:23:56;;;;;;;13.40;7.80;;;;;;;8.29;63.86;101019.67;24438;1335;3027605;-67
2022/10/18 02:26:25;;;;;;;16.00;8.30;;;;;;;8.16;64.43;101011.27;24406;1332;3027731;-67
2022/10/18 02:28:54;;;;;;;17.70;8.20;;;;;;;8.22;64.11;101015.13;24454;1327;3054077;-66
2022/10/18 02:31:43;;;;;;;15.50;8.30;;;;;;;8.20;64.23;101013.25;24430;1327;3028605;-67
2022/10/18 02:34:19;;;;;;;18.10;8.30;;;;;;;8.12;64.37;101014.36;24457;1327;3057417;-68
2022/10/18 02:36:53;;;;;;;16.20;8.10;;;;;;;8.12;64.28;101011.20;24480;1336;3053388;-67
2022/10/18 02:39:49;;;;;;;17.90;8.20;;;;;;;8.07;64.47;101008.88;24485;1337;3054305;-66
2022/10/18 02:42:18;;;;;;;16.80;6.40;;;;;;;8.11;64.38;101011.58;24405;1336;3052198;-67
2022/10/18 02:44:46;;;;;;;14.80;6.50;;;;;;;8.16;64.19;101014.59;24468;1326;3029747;-68
2022/10/18 02:47:16;;;;;;;12.80;6.30;;;;;;;8.25;63.76;101010.53;24412;1337;3052247;-66
2022/10/18 02:49:45;;;;;;;15.70;6.80;;;;;;;8.32;63.18;101014.16;24447;1329;3028919;-68
2022/10/18 02:52:14;;;;;;;15.40;6.20;;;;;;;8.34;62.94;101013.95;24402;1337;3053052;-66
2022/10/18 02:54:43;;;;;;;13.30;6.60;;;;;;;8.29;63.35;101010.25;24481;1325;3029365;-69
2022/10/18 02:57:13;;;;;;;13.90;5.80;;;;;;;8.30;63.04;101012.83;24417;1343;3056801;-68
2022/10/18 02:59:43;;;;;;;12.30;6.30;;;;;;;8.30;62.68;101014.58;24433;1336;3027025;-67
2022/10/18 03:02:12;;;;;;;11.90;6.30;;;;;;;8.38;62.34;101013.50;24476;1337;3026724;-69
2022/10/18 03:04:44;;;;;;;15.10;6.60;;;;;;;8.46;61.59;101010.15;24511;1336;3056632;-67
2022/10/18 03:07:15;;;;;;;12.00;6.80;;;;;;;8.51;61.18;101007.06;24525;1337;3026599;-68
2022/10/18 03:09:44;;;;;;;13.70;7.80;;;;;;;8.52;60.82;101009.98;24460;1343;3026391;-67
2022/10/18 03:12:14;;;;;;;15.70;5.90;;;;;;;8.55;60.74;101008.17;24485;1336;3058214;-67
2022/10/18 03:14:44;;;;;;;13.10;6.00;;;;;;;8.64;60.64;101011.07;24478;1334;3026717;-67
2022/10/18 03:17:14;;;;;;;14.70;6.60;;;;;;;8.68;60.40;101007.48;24486;1336;3029437;-68
2022/10/18 03:19:46;;;;;;;11.60;5.90;;;;;;;8.70;60.40;101010.02;24531;1340;3030081;-68
2022/10/18 03:22:15;;;;;;;13.80;6.40;;;;;;;8.70;60.36;101004.25;24465;1336;3026094;-68
2022/10/18 03:24:44;;;;;;;12.00;6.60;;;;;;;8.68;60.42;101005.37;24458;1338;3052519;-69
2022/10/18 03:27:15;;;;;;;14.60;6.50;;;;;;;8.55;60.65;101004.86;24458;1330;3026886;-66
2022/10/18 03:29:45;;;;;;;18.40;6.60;;;;;;;8.58;60.75;101001.98;24473;1337;3028169;-67
2022/10/18 03:32:14;;;;;;;14.30;6.70;;;;;;;8.60;60.38;100999.30;24418;1337;3028991;-66
2022/10/18 03:34:43;;;;;;;12.60;5.60;;;;;;;8.52;60.72;100998.84;24463;1337;3029249;-70
2022/10/18 03:37:12;;;;;;;11.90;6.40;;;;;;;8.50;60.43;100995.21;24426;1337;3052613;-67
2022/10/18 03:39:41;;;;;;;12.20;6.30;;;;;;;8.49;60.40;100994.19;24509;1336;3026288;-67
2022/10/18 03:42:10;;;;;;;13.30;7.10;;;;;;;8.48;60.55;100993.70;24393;1327;3051418;-68
2022/10/18 03:44:39;;;;;;;16.20;7.70;;;;;;;8.48;60.33;100991.27;24495;1330;3029296;-68
2022/10/18 03:47:07;;;;;;;15.10;8.80;;;;;;;8.47;60.03;100987.44;24511;1343;3053020;-69
2022/10/18 03:49:37;;;;;;;14.60;7.80;;;;;;;8.48;59.51;100984.77;24444;1332;3026709;-66
2022/10/18 03:52:06;;;;;;;26.00;8.20;;;;;;;8.58;58.85;100983.48;24578;1335;3024816;-66
2022/10/18 03:54:35;;;;;;;17.10;7.70;;;;;;;8.58;58.09;100975.80;24436;1337;3052843;-68
2022/10/18 03:57:04;;;;;;;15.70;7.30;;;;;;;8.59;57.91;100974.36;24483;1329;3028645;-65
2022/10/18 03:59:33;;;;;;;13.40;7.10;;;;;;;8.68;57.26;100970.26;24430;1337;3051043;-66
2022/10/18 04:02:03;;;;;;;12.50;6.30;;;;;;;8.74;56.53;100966.23;24447;1333;3028693;-67
2022/10/18 04:04:32;;;;;;;12.40;6.30;;;;;;;8.81;56.71;100960.80;24419;1333;3056640;-71
2022/10/18 04:07:02;;;;;;;12.30;5.90;;;;;;;8.77;57.45;100962.65;24436;1336;3026777;-67
2022/10/18 04:09:33;;;;;;;11.80;5.50;;;;;;;8.78;57.91;100960.02;24467;1329;3029221;-67
2022/10/18 04:12:02;;;;;;;12.20;6.50;;;;;;;8.72;57.96;100960.54;24475;1337;3025375;-68
2022/10/18 04:14:31;;;;;;;14.00;6.40;;;;;;;8.70;57.89;100960.58;24456;1336;3052454;-68
2022/10/18 04:17:00;;;;;;;13.60;6.30;;;;;;;8.74;57.72;100954.54;24515;1330;3026214;-68
2022/10/18 04:19:29;;;;;;;10.60;5.40;;;;;;;8.67;57.99;100955.60;24422;1330;3057200;-69
2022/10/18 04:21:58;;;;;;;13.30;6.40;;;;;;;8.63;58.27;100949.44;24556;1328;3027643;-66
2022/10/18 04:24:28;;;;;;;9.00;5.50;;;;;;;8.63;58.50;100950.68;24520;1335;3048618;-67
2022/10/18 04:26:56;;;;;;;11.80;5.90;;;;;;;8.59;58.32;100950.41;24502;1333;3027624;-68
2022/10/18 04:29:25;;;;;;;14.50;6.30;;;;;;;8.56;58.41;100951.91;24415;1336;3069067;-66
2022/10/18 04:31:54;;;;;;;13.80;5.40;;;;;;;8.52;58.15;100956.75;24444;1336;3027413;-67
2022/10/18 04:34:23;;;;;;;11.60;5.70;;;;;;;8.59;57.02;100952.70;24412;1328;3049182;-68
2022/10/18 04:36:53;;;;;;;10.30;5.10;;;;;;;8.67;56.79;100948.45;24454;1330;3028686;-68
2022/10/18 04:39:22;;;;;;;12.00;5.80;;;;;;;8.79;57.20;100957.35;24523;1336;3052407;-70
2022/10/18 04:41:54;;;;;;;11.40;5.70;;;;;;;8.84;57.07;100956.35;24578;1338;3025866;-71
2022/10/18 04:44:22;;;;;;;12.40;5.70;;;;;;;8.85;56.61;100957.00;24506;1327;3026247;-69
2022/10/18 04:46:51;;;;;;;11.30;5.20;;;;;;;8.84;55.92;100956.69;24543;1336;3052211;-69
2022/10/18 04:49:20;;;;;;;11.00;5.50;;;;;;;8.89;56.46;100956.37;24492;1325;3025376;-70
2022/10/18 04:51:49;;;;;;;12.80;5.70;;;;;;;8.87;56.44;100958.34;24491;1337;3051323;-70
2022/10/18 04:54:18;;;;;;;10.40;5.30;;;;;;;8.88;56.01;100959.01;24541;1336;3026192;-65
2022/10/18 04:56:48;;;;;;;10.30;5.40;;;;;;;8.86;55.63;100959.94;24466;1335;3052961;-68
2022/10/18 04:59:16;;;;;;;11.70;5.60;;;;;;;8.94;55.25;100959.71;24625;1330;3028751;-67
2022/10/18 05:01:47;;;;;;;17.00;5.90;;;;;;;9.00;54.74;100964.42;24489;1336;3053194;-69
2022/10/18 05:04:16;;;;;;;12.30;5.50;;;;;;;9.09;54.11;100964.51;24423;1335;3026489;-70
2022/10/18 05:06:52;;;;;;;12.00;5.30;;;;;;;9.24;53.55;100962.48;24515;1329;3056174;-71
2022/10/18 05:09:23;;;;;;;9.20;5.00;;;;;;;9.36;53.72;100962.79;24480;1326;3027769;-67
2022/10/18 05:11:54;;;;;;;10.20;4.80;;;;;;;9.48;53.93;100962.94;24558;1329;3049416;-69
2022/10/18 05:14:23;;;;;;;10.40;5.30;;;;;;;9.61;53.38;100964.97;24470;1335;3026534;-70
2022/10/18 05:16:54;;;;;;;11.20;4.90;;;;;;;9.70;52.62;100965.90;24551;1337;3026946;-69
2022/10/18 05:19:48;;;;;;;15.60;5.00;;;;;;;9.75;52.39;100964.00;24474;1335;3054043;-69
2022/10/18 05:22:17;;;;;;;13.40;5.90;;;;;;;9.71;52.78;100964.12;24477;1337;3026639;-68
2022/10/18 05:24:46;;;;;;;13.80;5.60;;;;;;;9.71;53.27;100969.18;24585;1336;3052512;-65
2022/10/18 05:27:15;;;;;;;19.70;8.10;;;;;;;9.66;53.75;100969.02;24519;1329;3026589;-66
2022/10/18 05:29:44;;;;;;;17.70;7.80;;;;;;;9.65;54.13;100971.33;24393;1335;3055231;-68
2022/10/18 05:32:13;;;;;;;16.00;7.20;;;;;;;9.68;54.34;100975.94;24432;1329;3029572;-68
2022/10/18 05:34:42;;;;;;;16.60;8.30;;;;;;;9.69;54.39;100978.71;24507;1343;3027482;-68
2022/10/18 05:37:11;;;;;;;20.20;9.00;;;;;;;9.68;54.87;100979.45;24435;1336;3056934;-68
2022/10/18 05:39:40;;;;;;;26.40;10.40;;;;;;;9.72;55.24;100981.21;24407;1329;3028053;-68
2022/10/18 05:42:09;;;;;;;33.30;12.00;;;;;;;9.67;55.38;100981.03;24508;1329;3050342;-67
2022/10/18 05:44:39;;;;;;;27.40;10.90;;;;;;;9.58;55.92;100980.61;24428;1333;3026306;-69
2022/10/18 05:47:09;;;;;;;29.30;11.40;;;;;;;9.51;56.41;100981.02;24478;1321;3026615;-68
2022/10/18 05:49:38;;;;;;;25.50;10.80;;;;;;;9.45;56.54;100980.35;24550;1337;3049535;-69
2022/10/18 05:52:07;;;;;;;22.60;9.50;;;;;;;9.51;56.23;100983.49;24500;1339;3026622;-67
2022/10/18 05:54:36;;;;;;;26.00;10.20;;;;;;;9.49;56.30;100987.57;24559;1336;3068228;-71
2022/10/18 05:57:06;;;;;;;26.80;11.40;;;;;;;9.46;56.73;100985.21;24559;1343;3027715;-67
2022/10/18 05:59:35;;;;;;;23.30;11.40;;;;;;;9.57;56.17;100984.35;24507;1326;3026461;-67
2022/10/18 06:02:04;;;;;;;19.90;10.10;;;;;;;9.55;56.27;100987.73;24513;1336;3069594;-70
2022/10/18 06:04:34;;;;;;;22.80;10.10;;;;;;;9.52;56.56;100986.42;24516;1330;3028071;-69
2022/10/18 06:07:08;;;;;;;21.60;9.40;;;;;;;9.55;57.07;100983.52;24475;1336;3025282;-71
2022/10/18 06:09:37;;;;;;;;;;;;;;;9.56;57.10;100987.52;24560;1329;3051963;-70
2022/10/18 06:12:07;;;;;;;17.40;9.90;;;;;;;9.71;56.71;100987.40;24557;1336;3030126;-68
2022/10/18 06:14:37;;;;;;;18.90;8.60;;;;;;;9.81;56.43;100992.13;24491;1336;3056102;-71
2022/10/18 06:17:07;;;;;;;24.40;8.60;;;;;;;9.86;56.37;100992.50;24472;1336;3028682;-70
2022/10/18 06:19:36;;;;;;;18.70;8.40;;;;;;;9.96;55.95;100991.83;24587;1329;3027731;-70
2022/10/18 06:22:05;;;;;;;21.90;10.30;;;;;;;10.02;55.87;100996.17;24486;1336;3056609;-69
2022/10/18 06:24:34;;;;;;;18.30;9.70;;;;;;;10.09;55.89;100996.80;24551;1333;3027442;-69
2022/10/18 06:27:07;;;;;;;14.90;8.30;;;;;;;10.11;55.51;100999.89;24501;1337;3050845;-70
2022/10/18 06:29:37;;;;;;;18.80;9.20;;;;;;;10.22;55.19;100995.81;24507;1336;3025974;-68
2022/10/18 06:32:07;;;;;;;21.50;8.80;;;;;;;10.22;55.12;100998.80;24530;1327;3027061;-68
2022/10/18 06:34:36;;;;;;;20.90;9.80;;;;;;;10.29;54.82;100999.08;24495;1337;3030309;-69
2022/10/18 06:37:05;;;;;;;23.60;10.50;;;;;;;10.33;55.27;100990.20;24470;1337;3027366;-70
2022/10/18 06:41:07;;;;;;;22.70;10.70;;;;;;;10.38;55.25;100992.48;30867;1337;3013461;-69
2022/10/18 06:43:36;;;;;;;21.30;10.80;;;;;;;10.41;55.17;100995.38;24484;1337;3026534;-71
2022/10/18 06:46:06;;;;;;;17.40;9.40;;;;;;;10.49;54.84;100999.98;24480;1330;3027591;-69
2022/10/18 06:48:37;;;;;;;17.70;9.40;;;;;;;10.55;55.03;101001.55;24512;1336;3048989;-68
2022/10/18 06:51:07;;;;;;;19.80;8.30;;;;;;;10.49;55.00;100998.44;24456;1347;3026431;-70
2022/10/18 06:56:02;;;;;;;17.00;8.90;;;;;;;10.69;54.93;100991.55;30885;1336;3012474;-65
2022/10/18 06:58:32;;;;;;;17.50;9.20;;;;;;;10.82;55.01;100985.66;24434;1337;3026612;-69
2022/10/18 07:01:08;;;;;;;17.80;9.00;;;;;;;10.92;54.20;100982.14;24383;1333;3026260;-64
2022/10/18 07:03:38;;;;;;;19.00;8.80;;;;;;;11.02;54.18;100983.31;24362;1346;3056560;-65
2022/10/18 07:06:08;;;;;;;18.30;9.20;;;;;;;11.13;53.99;100980.27;24412;1338;3026685;-68
2022/10/18 07:08:38;;;;;;;16.30;8.50;;;;;;;11.29;53.93;100972.29;23732;1342;4053570;-68
2022/10/18 07:11:16;;;;;;;17.70;8.80;;;;;;;11.38;53.79;100965.25;24435;1336;3027704;-62
2022/10/18 07:13:45;;;;;;;17.50;9.20;;;;;;;11.49;53.24;100961.48;24514;1335;3052498;-66
2022/10/18 07:16:18;;;;;;;15.10;7.00;;;;;;;11.49;52.87;100958.84;24428;1328;3052402;-61
2022/10/18 07:18:49;;;;;;;13.20;7.00;;;;;;;11.63;52.15;100960.07;24506;1333;3025766;-70
2022/10/18 07:21:20;;;;;;;16.10;6.90;;;;;;;11.74;51.59;100960.10;24496;1341;3027065;-67
2022/10/18 07:23:49;;;;;;;13.40;6.80;;;;;;;11.73;51.67;100955.23;24558;1333;3025968;-74
2022/10/18 07:26:32;;;;;;;16.80;6.60;;;;;;;11.89;51.80;100954.02;24447;1327;3028194;-72
2022/10/18 07:29:07;;;;;;;15.60;7.40;;;;;;;12.12;51.38;100948.52;24449;1335;3052852;-65
2022/10/18 07:31:37;;;;;;;13.00;6.10;;;;;;;12.22;51.20;100946.17;24472;1333;3051212;-66
2022/10/18 07:34:09;;;;;;;14.50;6.40;;;;;;;12.30;50.52;100940.90;24532;1341;3025839;-60
2022/10/18 07:36:38;;;;;;;13.10;6.20;;;;;;;12.43;50.45;100941.02;24547;1337;3026488;-65
2022/10/18 07:39:07;;;;;;;10.70;5.30;;;;;;;12.52;49.63;100937.64;24526;1341;3029945;-73
2022/10/18 07:41:36;;;;;;;11.30;5.30;;;;;;;12.61;49.67;100935.61;24530;1325;3028495;-67
2022/10/18 07:44:05;;;;;;;8.60;4.90;;;;;;;12.64;49.25;100936.21;24525;1330;3049505;-72
2022/10/18 07:46:34;;;;;;;10.70;5.40;;;;;;;12.73;49.49;100927.34;24576;1332;3028055;-69
2022/10/18 07:49:03;;;;;;;12.40;6.20;;;;;;;12.81;49.88;100922.23;24513;1327;3069388;-65
2022/10/18 07:51:34;;;;;;;9.40;5.40;;;;;;;12.93;50.23;100917.99;24543;1324;3028122;-64
2022/10/18 07:54:03;;;;;;;14.00;6.00;;;;;;;13.01;49.99;100914.28;24591;1324;3049730;-66
2022/10/18 07:56:33;;;;;;;18.10;6.40;;;;;;;13.03;50.00;100913.84;24530;1332;3028352;-63
2022/10/18 07:59:02;;;;;;;11.80;5.80;;;;;;;13.08;49.57;100906.91;24440;1339;3052009;-64
2022/10/18 08:01:31;;;;;;;12.20;5.60;;;;;;;13.22;50.02;100906.19;24490;1326;3028411;-66
2022/10/18 08:04:00;;;;;;;12.50;5.80;;;;;;;13.31;49.95;100898.04;24469;1334;3050869;-67
2022/10/18 08:06:29;;;;;;;12.30;6.00;;;;;;;13.47;49.35;100897.98;24539;1324;3025436;-69
2022/10/18 08:08:59;;;;;;;11.80;5.10;;;;;;;13.55;48.86;100892.85;24498;1333;3052955;-66
2022/10/18 08:11:28;;;;;;;9.40;4.80;;;;;;;13.64;48.06;100891.88;24446;1325;3028300;-65
2022/10/18 08:13:57;;;;;;;8.20;4.10;;;;;;;13.81;48.10;100892.95;24503;1332;3052608;-70
2022/10/18 08:16:26;;;;;;;7.20;4.10;;;;;;;13.87;47.61;100882.61;24459;1333;3028721;-72
2022/10/18 08:18:56;;;;;;;9.50;4.60;;;;;;;14.03;47.41;100879.63;24476;1333;3057538;-73
2022/10/18 08:21:25;;;;;;;10.20;4.50;;;;;;;14.13;47.31;100883.50;24474;1334;3027522;-67
2022/10/18 08:23:56;;;;;;;11.00;4.60;;;;;;;14.22;47.02;100882.35;24482;1333;3026190;-71
2022/10/18 08:26:25;;;;;;;9.40;4.70;;;;;;;14.31;46.34;100882.06;24467;1330;3027292;-68
2022/10/18 08:28:54;;;;;;;12.40;5.40;;;;;;;14.35;46.29;100885.36;24463;1333;3052574;-72
2022/10/18 08:31:23;;;;;;;14.80;5.80;;;;;;;14.41;46.19;100880.83;24500;1332;3027980;-66
2022/10/18 08:33:54;;;;;;;9.30;3.80;;;;;;;14.52;45.20;100880.52;24460;1333;3055870;-68
2022/10/18 08:36:23;;;;;;;9.10;4.30;;;;;;;14.65;44.24;100892.05;24497;1327;3027100;-71
2022/10/18 08:38:53;;;;;;;7.30;4.00;;;;;;;14.73;41.89;100883.48;24489;1341;3025997;-64
2022/10/18 08:41:37;;;;;;;8.90;3.40;;;;;;;14.84;42.35;100888.39;24445;1324;3028428;-68
2022/10/18 08:44:29;;;;;;;8.40;4.20;;;;;;;14.85;40.97;100882.29;24458;1332;3053887;-65
2022/10/18 08:47:06;;;;;;;12.80;4.80;;;;;;;15.01;41.74;100883.01;24434;1333;3052385;-68
2022/10/18 08:50:06;;;;;;;10.40;3.90;;;;;;;15.03;40.90;100876.38;24518;1334;3051597;-66
2022/10/18 08:52:53;;;;;;;10.70;3.60;;;;;;;15.20;40.45;100874.50;24470;1338;3052627;-70
2022/10/18 08:55:27;;;;;;;13.40;4.30;;;;;;;15.25;40.22;100884.45;24429;1333;3049467;-67
2022/10/18 08:57:57;;;;;;;11.00;3.30;;;;;;;15.24;40.39;100873.40;24463;1333;3069074;-69
2022/10/18 09:00:29;;;;;;;9.80;3.90;;;;;;;15.37;40.06;100870.73;24413;1336;3028724;-64
2022/10/18 09:03:31;;;;;;;8.10;3.60;;;;;;;15.29;40.35;100881.24;24509;1326;3026720;-66
2022/10/18 09:06:30;;;;;;;9.80;3.90;;;;;;;15.36;40.27;100869.69;24467;1326;3052538;-68
2022/10/18 09:09:41;;;;;;;9.90;4.00;;;;;;;15.36;40.24;100859.66;24499;1326;3053106;-67
2022/10/18 09:12:33;;;;;;;11.20;4.50;;;;;;;15.49;40.29;100859.44;24438;1346;3052649;-66
2022/10/18 09:15:12;;;;;;;8.60;3.60;;;;;;;15.62;39.55;100849.09;24417;1339;3052454;-72
2022/10/18 09:18:03;;;;;;;10.60;4.50;;;;;;;15.84;40.00;100848.91;24491;1333;3049558;-71
2022/10/18 09:20:52;;;;;;;12.70;4.20;;;;;;;15.95;39.86;100845.19;24488;1334;3069972;-69
2022/10/18 09:23:48;;;;;;;8.20;3.60;;;;;;;16.00;39.40;100839.09;24441;1340;3051590;-67
2022/10/18 09:26:47;;;;;;;9.00;4.30;;;;;;;16.11;39.86;100829.92;24471;1333;3058448;-66
2022/10/18 09:29:26;;;;;;;8.30;3.20;;;;;;;16.21;39.95;100831.03;24513;1333;3053076;-72
2022/10/18 09:31:55;;;;;;;6.70;3.20;;;;;;;16.14;38.99;100826.70;24478;1325;3053065;-66
2022/10/18 09:34:27;;;;;;;7.90;3.00;;;;;;;16.25;38.64;100819.66;24445;1324;3029214;-73
2022/10/18 09:37:01;;;;;;;4.40;2.30;;;;;;;16.30;37.64;100820.27;24613;1337;3053311;-71
2022/10/18 09:39:32;;;;;;;6.00;3.00;;;;;;;16.37;37.18;100822.83;24462;1334;3027560;-70
2022/10/18 09:42:10;;;;;;;4.20;2.40;;;;;;;16.51;36.54;100814.70;24523;1332;3056398;-73
2022/10/18 09:44:43;;;;;;;4.30;2.60;;;;;;;16.64;36.03;100804.28;24504;1333;3053965;-64
2022/10/18 09:47:15;;;;;;;7.80;2.00;;;;;;;16.74;35.44;100799.75;24538;1334;3027634;-72
2022/10/18 09:49:46;;;;;;;4.40;2.10;;;;;;;16.78;34.53;100796.66;24474;1332;3028481;-61
2022/10/18 09:52:20;;;;;;;7.20;2.30;;;;;;;16.87;34.46;100792.22;24591;1333;3028168;-68
2022/10/18 09:54:58;;;;;;;10.10;2.30;;;;;;;16.79;33.12;100792.89;24514;1332;3048680;-70
2022/10/18 09:57:31;;;;;;;5.30;2.50;;;;;;;16.80;34.17;100787.13;24500;1319;3068666;-65
2022/10/18 10:00:00;;;;;;;4.80;2.20;;;;;;;16.85;34.10;100776.76;24460;1338;3027466;-64
2022/10/18 10:02:29;;;;;;;5.40;2.20;;;;;;;16.83;34.76;100780.27;24521;1335;3026926;-66
2022/10/18 10:04:58;;;;;;;4.70;2.30;;;;;;;17.08;34.92;100773.86;24457;1318;3028586;-69
2022/10/18 10:07:40;;;;;;;3.30;2.20;;;;;;;17.23;34.16;100762.57;24471;1332;3051816;-73
2022/10/18 10:10:16;;;;;;;5.70;2.30;;;;;;;17.20;32.64;100760.79;24515;1332;3058671;-66
2022/10/18 10:12:45;;;;;;;6.30;2.60;;;;;;;17.18;32.90;100761.67;24498;1326;3052906;-74
2022/10/18 10:15:25;;;;;;;5.30;1.90;;;;;;;17.27;33.09;100760.53;24518;1333;3054418;-66
2022/10/18 10:18:17;;;;;;;4.60;2.30;;;;;;;17.40;33.47;100763.36;24443;1343;3026204;-70
2022/10/18 10:20:49;;;;;;;4.50;1.70;;;;;;;17.40;32.58;100750.79;24481;1335;3054345;-71
2022/10/18 10:23:29;;;;;;;4.10;2.10;;;;;;;17.31;30.03;100748.17;24482;1333;3028377;-64
2022/10/18 10:26:01;;;;;;;5.70;1.90;;;;;;;17.42;31.25;100742.47;24457;1333;3069326;-68
2022/10/18 10:28:33;;;;;;;4.70;2.10;;;;;;;17.53;31.07;100744.57;24457;1332;3028670;-66
2022/10/18 10:31:16;;;;;;;5.40;1.90;;;;;;;17.62;31.11;100735.42;24460;1326;3026202;-69
2022/10/18 10:33:46;;;;;;;3.50;2.10;;;;;;;17.72;30.36;100734.01;24468;1324;3053985;-71
2022/10/18 10:36:17;;;;;;;3.80;1.70;;;;;;;17.88;30.65;100720.14;24517;1334;3027234;-61
2022/10/18 10:39:03;;;;;;;6.40;2.10;;;;;;;17.99;30.98;100719.09;25395;1333;3028347;-69
2022/10/18 10:41:32;;;;;;;3.40;1.80;;;;;;;18.07;29.79;100712.10;24508;1326;3051704;-65
2022/10/18 10:44:03;;;;;;;4.20;1.70;;;;;;;18.10;29.38;100701.98;24484;1340;3028001;-69
2022/10/18 10:46:34;;;;;;;5.10;2.20;;;;;;;18.13;28.88;100700.13;24470;1331;3027222;-59
2022/10/18 10:49:23;;;;;;;3.80;2.10;;;;;;;18.19;29.70;100698.98;24505;1316;3050918;-67
2022/10/18 10:51:58;;;;;;;6.20;2.20;;;;;;;18.25;28.79;100697.13;24450;1335;3056356;-63
2022/10/18 10:54:27;;;;;;;2.70;1.80;;;;;;;18.28;28.25;100692.31;24498;1333;3052806;-69
2022/10/18 10:57:04;;;;;;;2.80;1.70;;;;;;;18.31;28.86;100683.39;24431;1339;3025409;-68
2022/10/18 10:59:42;;;;;;;3.90;2.00;;;;;;;18.44;28.43;100684.25;24484;1340;3050907;-68
2022/10/18 11:02:17;;;;;;;5.30;1.80;;;;;;;18.50;27.59;100679.02;24510;1334;3052906;-64
2022/10/18 11:04:51;;;;;;;6.10;2.30;;;;;;;18.43;27.93;100687.13;24463;1333;3051137;-67
2022/10/18 11:07:32;;;;;;;6.20;2.20;;;;;;;18.53;27.47;100680.55;24441;1326;3069251;-67
2022/10/18 11:10:10;;;;;;;4.80;1.70;;;;;;;18.61;26.70;100673.91;24545;1333;3049258;-61
2022/10/18 11:12:46;;;;;;;3.50;1.90;;;;;;;18.62;26.41;100673.29;24586;1325;3056936;-65
2022/10/18 11:16:03;;;;;;;4.70;1.80;;;;;;;18.49;26.54;100676.05;24518;1326;3055835;-74
2022/10/18 11:18:33;;;;;;;3.90;1.60;;;;;;;18.61;26.91;100661.86;24390;1326;3053125;-69
2022/10/18 11:21:25;;;;;;;3.30;1.80;;;;;;;18.78;27.32;100657.92;24447;1327;3028304;-75
2022/10/18 11:23:56;;;;;;;3.70;1.70;;;;;;;18.80;27.98;100651.35;24462;1343;3053109;-69
2022/10/18 11:26:48;;;;;;;2.70;1.90;;;;;;;18.98;27.83;100649.27;24479;1326;3028847;-63
2022/10/18 11:29:42;;;;;;;5.80;2.00;;;;;;;18.98;26.60;100649.61;24442;1326;3068035;-66
2022/10/18 11:32:21;;;;;;;7.90;2.10;;;;;;;18.99;27.06;100641.58;24555;1333;3050436;-69
2022/10/18 11:35:07;;;;;;;6.10;2.30;;;;;;;19.17;27.24;100637.21;24441;1333;3057749;-64
2022/10/18 11:37:49;;;;;;;5.60;2.00;;;;;;;19.18;27.34;100636.36;24507;1326;3053672;-63
2022/10/18 11:40:40;;;;;;;3.70;2.20;;;;;;;19.16;27.50;100635.98;24464;1333;3053929;-68